Ilona — ZCTE3 — position and weather

sailwx.info

Track history (hours):
 
Tides and Currents Weather Stations Pressure Air Temp Water Temp Dewpoint Dewpoint Depression Visibility Wind Speed Wind Dir Waves Ship Positions

Ilona

Last reported at 2015-Jan-07 07:29 UTC. Time now 2015-Mar-29 16:03 UTC.
Position N 51°47' E 005°33'.
Warning: this ship's position is months out of date.

Length 37 m; draft 2.5 m.

Type: Pleasure craft. MMSI: 319864000.

Date/timePositionNaut miles runAvg speedWind from/ knotsBaromVisibWave heightAir tempDewpointWater temp
2015-Jan-07 07:29N 51°47' E 005°33'0 0.0
2015-Jan-07 06:29N 51°47' E 005°33'0 0.0
2015-Jan-07 05:29N 51°47' E 005°33'0 0.0
2015-Jan-07 04:32N 51°47' E 005°33'0 0.0
2015-Jan-07 03:32N 51°47' E 005°33'0 0.0
2015-Jan-07 02:29N 51°47' E 005°33'0 0.0
2015-Jan-07 01:32N 51°47' E 005°33'0 0.0
2015-Jan-07 00:20N 51°47' E 005°33'0 0.0
2015-Jan-06 23:32N 51°47' E 005°33'0 0.0
2015-Jan-06 22:32N 51°47' E 005°33'0 0.0
2015-Jan-06 21:32N 51°47' E 005°33'0 0.0
2015-Jan-06 20:32N 51°47' E 005°33'0 0.0
2015-Jan-06 19:26N 51°47' E 005°33'0 0.0
2015-Jan-06 18:32N 51°47' E 005°33'0 0.0
2015-Jan-06 17:32N 51°47' E 005°33'0 0.0
2015-Jan-06 16:32N 51°47' E 005°33'0 0.0
2015-Jan-06 15:32N 51°47' E 005°33'3 2.8
2015-Jan-06 14:33N 51°49' E 005°31'3 2.5
2015-Jan-06 13:32N 51°49' E 005°27'6 6.5
2015-Jan-06 12:34N 51°45' E 005°19'8 8.5
2015-Jan-06 11:34N 51°44' E 005°05'9 8.7
2015-Jan-06 10:34N 51°43' E 004°51'9 9.2
2015-Jan-06 09:33N 51°43' E 004°36'1110.9
2015-Jan-06 08:33N 51°45' E 004°19'8 8.2
2015-Jan-06 07:34N 51°49' E 004°08'0 0.0
2015-Jan-06 06:31N 51°49' E 004°08'0 0.0
2015-Jan-06 05:31N 51°49' E 004°08'0 0.0
2015-Jan-06 04:34N 51°49' E 004°08'0 0.0
2015-Jan-06 03:34N 51°49' E 004°08'0 0.0
2015-Jan-06 02:31N 51°49' E 004°08'0 0.0
2015-Jan-06 01:34N 51°49' E 004°08'0 0.0
2015-Jan-06 00:34N 51°49' E 004°08'0 0.0
2015-Jan-05 23:34N 51°49' E 004°08'0 0.0
2015-Jan-05 22:34N 51°49' E 004°08'0 0.0
2015-Jan-05 21:34N 51°49' E 004°08'0 0.0
2015-Jan-05 20:34N 51°49' E 004°08'0 0.0
2015-Jan-05 19:31N 51°49' E 004°08'0 0.0
2015-Jan-05 18:34N 51°49' E 004°08'0 0.0
2015-Jan-05 17:28N 51°49' E 004°08'0 0.0
2015-Jan-05 16:25N 51°49' E 004°08'0 0.0
2015-Jan-05 15:34N 51°49' E 004°08'0 0.0
2015-Jan-05 14:34N 51°49' E 004°08'0 0.0
2015-Jan-05 13:33N 51°49' E 004°08'0 0.0
2015-Jan-05 12:33N 51°49' E 004°08'0 0.0
2015-Jan-05 11:33N 51°49' E 004°08'0 0.0
2015-Jan-05 10:30N 51°49' E 004°08'0 0.0
2015-Jan-05 09:33N 51°49' E 004°08'0 0.0
2015-Jan-05 08:33N 51°49' E 004°08'0 0.0
2015-Jan-05 07:33N 51°49' E 004°08'0 0.0
2015-Jan-05 06:33N 51°49' E 004°08'0 0.0
2015-Jan-05 05:33N 51°49' E 004°08'0 0.0
2015-Jan-05 04:33N 51°49' E 004°08'0 0.0
2015-Jan-05 03:30N 51°49' E 004°08'0 0.0
2015-Jan-05 02:33N 51°49' E 004°08'0 0.0
2015-Jan-05 01:33N 51°49' E 004°08'0 0.0
2015-Jan-05 00:33N 51°49' E 004°08'0 0.0
2015-Jan-04 23:33N 51°49' E 004°08'0 0.0
2015-Jan-04 22:33N 51°49' E 004°08'0 0.0
2015-Jan-04 21:33N 51°49' E 004°08'0 0.0
2015-Jan-04 20:33N 51°49' E 004°08'0 0.0
2015-Jan-04 19:33N 51°49' E 004°08'0 0.0
2015-Jan-04 18:33N 51°49' E 004°08'0 0.0
2015-Jan-04 17:33N 51°49' E 004°08'0 0.0
2015-Jan-04 16:27N 51°49' E 004°08'0 0.0
2015-Jan-04 15:33N 51°49' E 004°08'0 0.0
2015-Jan-04 14:33N 51°49' E 004°08'0 0.0
2015-Jan-04 13:33N 51°49' E 004°08'0 0.0
2015-Jan-04 12:33N 51°49' E 004°08'0 0.0
2015-Jan-04 11:33N 51°49' E 004°08'0 0.0
2015-Jan-04 10:33N 51°49' E 004°08'0 0.0
2015-Jan-04 09:33N 51°49' E 004°08'0 0.0
2015-Jan-04 08:33N 51°49' E 004°08'0 0.0
2015-Jan-04 07:30N 51°49' E 004°08'0 0.0
2015-Jan-04 06:33N 51°49' E 004°08'0 0.0
2015-Jan-04 05:33N 51°49' E 004°08'0 0.0
2015-Jan-04 04:33N 51°49' E 004°08'0 0.0
2015-Jan-04 03:30N 51°49' E 004°08'0 0.0
2015-Jan-04 02:33N 51°49' E 004°08'0 0.0
2015-Jan-04 01:33N 51°49' E 004°08'0 0.0
2015-Jan-04 00:33N 51°49' E 004°08'0 0.0
2015-Jan-03 23:33N 51°49' E 004°08'0 0.0
2015-Jan-03 22:33N 51°49' E 004°08'0 0.0
2015-Jan-03 21:33N 51°49' E 004°08'0 0.0
2015-Jan-03 20:33N 51°49' E 004°08'0 0.0
2015-Jan-03 19:33N 51°49' E 004°08'0 0.0
2015-Jan-03 18:33N 51°49' E 004°08'0 0.0
2015-Jan-03 17:33N 51°49' E 004°08'0 0.0
2015-Jan-03 16:33N 51°49' E 004°08'0 0.0
2015-Jan-03 15:33N 51°49' E 004°08'0 0.0
2015-Jan-03 14:33N 51°49' E 004°08'0 0.0
2015-Jan-03 13:33N 51°49' E 004°08'0 0.0
2015-Jan-03 12:33N 51°49' E 004°08'0 0.0
2015-Jan-03 11:33N 51°49' E 004°08'0 0.0
2015-Jan-03 10:33N 51°49' E 004°08'0 0.0
2015-Jan-03 09:33N 51°49' E 004°08'0 0.0
2015-Jan-03 08:33N 51°49' E 004°08'0 0.0
2015-Jan-03 07:33N 51°49' E 004°08'0 0.0
2015-Jan-03 06:33N 51°49' E 004°08'0 0.0
2015-Jan-03 05:33N 51°49' E 004°08'0 0.0
2015-Jan-03 04:30N 51°49' E 004°08'0 0.0
2015-Jan-03 03:33N 51°49' E 004°08'0 0.0
2015-Jan-03 02:33N 51°49' E 004°08'0 0.0
2015-Jan-03 01:33N 51°49' E 004°08'0 0.0
2015-Jan-03 00:33N 51°49' E 004°08'0 0.0
2015-Jan-02 23:33N 51°49' E 004°08'0 0.0
2015-Jan-02 22:33N 51°49' E 004°08'0 0.0
2015-Jan-02 21:33N 51°49' E 004°08'0 0.0
2015-Jan-02 20:33N 51°49' E 004°08'0 0.0
2015-Jan-02 19:33N 51°49' E 004°08'0 0.0
2015-Jan-02 18:33N 51°49' E 004°08'0 0.0
2015-Jan-02 17:33N 51°49' E 004°08'0 0.0
2015-Jan-02 16:33N 51°49' E 004°08'0 0.0
2015-Jan-02 15:33N 51°49' E 004°08'0 0.0
2015-Jan-02 14:33N 51°49' E 004°08'0 0.0
2015-Jan-02 13:27N 51°49' E 004°08'0 0.0
2015-Jan-02 12:30N 51°49' E 004°08'0 0.0
2015-Jan-02 11:33N 51°49' E 004°08'0 0.0
2015-Jan-02 10:33N 51°49' E 004°08'0 0.0
2015-Jan-02 09:33N 51°49' E 004°08'0 0.0
2015-Jan-02 08:33N 51°49' E 004°08'0 0.0
2015-Jan-02 07:33N 51°49' E 004°08'0 0.0
2015-Jan-02 06:33N 51°49' E 004°08'0 0.0
2015-Jan-02 05:33N 51°49' E 004°08'0 0.0
2015-Jan-02 04:33N 51°49' E 004°08'0 0.0
2015-Jan-02 03:33N 51°49' E 004°08'0 0.0
2015-Jan-02 02:33N 51°49' E 004°08'0 0.0
2015-Jan-02 01:33N 51°49' E 004°08'0 0.0
2015-Jan-02 00:33N 51°49' E 004°08'0 0.0
2015-Jan-01 23:33N 51°49' E 004°08'0 0.0
2015-Jan-01 22:33N 51°49' E 004°08'0 0.0
2015-Jan-01 21:33N 51°49' E 004°08'0 0.0
2015-Jan-01 20:33N 51°49' E 004°08'0 0.0
2015-Jan-01 19:33N 51°49' E 004°08'0 0.0
2015-Jan-01 18:33N 51°49' E 004°08'0 0.0
2015-Jan-01 17:33N 51°49' E 004°08'0 0.0
2015-Jan-01 16:33N 51°49' E 004°08'0 0.0
2015-Jan-01 15:30N 51°49' E 004°08'0 0.0
2015-Jan-01 14:33N 51°49' E 004°08'0 0.0
2015-Jan-01 13:33N 51°49' E 004°08'0 0.0
2015-Jan-01 12:33N 51°49' E 004°08'0 0.0
2015-Jan-01 11:33N 51°49' E 004°08'0 0.0
2015-Jan-01 10:33N 51°49' E 004°08'0 0.0
2015-Jan-01 09:33N 51°49' E 004°08'0 0.0
2015-Jan-01 08:33N 51°49' E 004°08'0 0.0
2015-Jan-01 07:33N 51°49' E 004°08'0 0.0
2015-Jan-01 06:33N 51°49' E 004°08'0 0.0
2015-Jan-01 05:33N 51°49' E 004°08'0 0.0
2015-Jan-01 04:33N 51°49' E 004°08'0 0.0
2015-Jan-01 03:33N 51°49' E 004°08'0 0.0
2015-Jan-01 02:33N 51°49' E 004°08'0 0.0
2015-Jan-01 01:33N 51°49' E 004°08'0 0.0
2015-Jan-01 00:33N 51°49' E 004°08'0 0.0
2014-Dec-31 23:33N 51°49' E 004°08'0 0.0
2014-Dec-31 22:33N 51°49' E 004°08'0 0.0
2014-Dec-31 21:33N 51°49' E 004°08'0 0.0
2014-Dec-31 20:33N 51°49' E 004°08'0 0.0
2014-Dec-31 19:33N 51°49' E 004°08'0 0.0
2014-Dec-31 18:33N 51°49' E 004°08'0 0.0
2014-Dec-31 17:33N 51°49' E 004°08'0 0.0
2014-Dec-31 16:33N 51°49' E 004°08'0 0.0
2014-Dec-31 15:33N 51°49' E 004°08'0 0.0
2014-Dec-31 14:33N 51°49' E 004°08'0 0.0
2014-Dec-31 13:33N 51°49' E 004°08'0 0.0
2014-Dec-31 12:33N 51°49' E 004°08'0 0.0
2014-Dec-31 11:33N 51°49' E 004°08'0 0.0
2014-Dec-31 10:33N 51°49' E 004°08'0 0.0
2014-Dec-31 09:33N 51°49' E 004°08'0 0.0
2014-Dec-31 08:30N 51°49' E 004°08'0 0.0
2014-Dec-31 07:33N 51°49' E 004°08'0 0.0
2014-Dec-31 06:33N 51°49' E 004°08'0 0.0
2014-Dec-31 05:33N 51°49' E 004°08'0 0.0
2014-Dec-31 04:33N 51°49' E 004°08'0 0.0
2014-Dec-31 03:33N 51°49' E 004°08'0 0.0
2014-Dec-31 02:33N 51°49' E 004°08'0 0.0
2014-Dec-31 01:33N 51°49' E 004°08'0 0.0
2014-Dec-31 00:33N 51°49' E 004°08'0 0.0
2014-Dec-30 22:33N 51°49' E 004°08'0 0.0
2014-Dec-30 21:33N 51°49' E 004°08'0 0.0
2014-Dec-30 20:33N 51°49' E 004°08'0 0.0
2014-Dec-30 19:33N 51°49' E 004°08'0 0.0
2014-Dec-30 18:33N 51°49' E 004°08'0 0.0
2014-Dec-30 17:33N 51°49' E 004°08'0 0.0
2014-Dec-30 16:33N 51°49' E 004°08'0 0.0
2014-Dec-30 15:33N 51°49' E 004°08'0 0.0
2014-Dec-30 14:33N 51°49' E 004°08'0 0.0
2014-Dec-30 13:33N 51°49' E 004°08'0 0.0
2014-Dec-30 12:33N 51°49' E 004°08'0 0.0
2014-Dec-30 11:30N 51°49' E 004°08'0 0.0
2014-Dec-30 10:33N 51°49' E 004°08'0 0.0
2014-Dec-30 09:33N 51°49' E 004°08'0 0.0
2014-Dec-30 08:33N 51°49' E 004°08'0 0.0
2014-Dec-30 07:33N 51°49' E 004°08'0 0.0
2014-Dec-30 06:33N 51°49' E 004°08'0 0.0
2014-Dec-30 05:33N 51°49' E 004°08'0 0.0
2014-Dec-30 04:33N 51°49' E 004°08'0 0.0
2014-Dec-30 03:33N 51°49' E 004°08'0 0.0
2014-Dec-30 02:33N 51°49' E 004°08'0 0.0
2014-Dec-30 01:33N 51°49' E 004°08'0 0.0
2014-Dec-30 00:33N 51°49' E 004°08'0 0.0
2014-Dec-29 23:33N 51°49' E 004°08'0 0.0
2014-Dec-29 22:33N 51°49' E 004°08'0 0.0
2014-Dec-29 21:33N 51°49' E 004°08'0 0.0
2014-Dec-29 20:33N 51°49' E 004°08'0 0.0
2014-Dec-29 19:24N 51°49' E 004°08'0 0.0
2014-Dec-29 18:33N 51°49' E 004°08'0 0.0
2014-Dec-29 17:33N 51°49' E 004°08'0 0.0
2014-Dec-29 16:30N 51°49' E 004°08'0 0.0
2014-Dec-29 15:30N 51°49' E 004°08'0 0.0
2014-Dec-29 14:33N 51°49' E 004°08'0 0.0
2014-Dec-29 13:33N 51°49' E 004°08'0 0.0
2014-Dec-29 12:33N 51°49' E 004°08'0 0.0
2014-Dec-29 11:33N 51°49' E 004°08'0 0.0
2014-Dec-29 10:32N 51°49' E 004°08'0 0.0
2014-Dec-29 09:33N 51°49' E 004°08'0 0.0
2014-Dec-29 08:33N 51°49' E 004°08'0 0.0
2014-Dec-29 07:33N 51°49' E 004°08'0 0.0
2014-Dec-29 06:33N 51°49' E 004°08'0 0.0
2014-Dec-29 05:33N 51°49' E 004°08'0 0.0
2014-Dec-29 04:33N 51°49' E 004°08'0 0.0
2014-Dec-29 03:33N 51°49' E 004°08'0 0.0
2014-Dec-29 02:32N 51°49' E 004°08'0 0.0
2014-Dec-29 01:33N 51°49' E 004°08'0 0.0
2014-Dec-29 00:33N 51°49' E 004°08'0 0.0
2014-Dec-28 23:33N 51°49' E 004°08'0 0.0
2014-Dec-28 22:33N 51°49' E 004°08'0 0.0
2014-Dec-28 21:33N 51°49' E 004°08'0 0.0
2014-Dec-28 20:30N 51°49' E 004°08'0 0.0
2014-Dec-28 19:33N 51°49' E 004°08'0 0.0
2014-Dec-28 18:33N 51°49' E 004°08'0 0.0
2014-Dec-28 17:33N 51°49' E 004°08'0 0.0
2014-Dec-28 16:33N 51°49' E 004°08'0 0.0
2014-Dec-28 15:33N 51°49' E 004°08'0 0.0
2014-Dec-28 14:33N 51°49' E 004°08'0 0.0
2014-Dec-28 13:33N 51°49' E 004°08'0 0.0
2014-Dec-28 12:33N 51°49' E 004°08'0 0.0
2014-Dec-28 11:33N 51°49' E 004°08'0 0.0
2014-Dec-28 10:33N 51°49' E 004°08'0 0.0
2014-Dec-28 09:33N 51°49' E 004°08'0 0.0
2014-Dec-28 08:33N 51°49' E 004°08'0 0.0
2014-Dec-28 07:33N 51°49' E 004°08'  
Track history (hours):
 
Tides and Currents Weather Stations Pressure Air Temp Water Temp Dewpoint Dewpoint Depression Visibility Wind Speed Wind Dir Waves Ship Positions

Ilona

Last reported at 2015-Jan-07 07:29 UTC. Time now 2015-Mar-29 16:03 UTC.
Position N 51°47' E 005°33'.
Warning: this ship's position is months out of date.

Length 37 m; draft 2.5 m.

Type: Pleasure craft. MMSI: 319864000.

Date/timePositionNaut miles runAvg speedWind from/ knotsBaromVisibWave heightAir tempDewpointWater temp
2015-Jan-07 07:29N 51°47' E 005°33'0 0.0
2015-Jan-07 06:29N 51°47' E 005°33'0 0.0
2015-Jan-07 05:29N 51°47' E 005°33'0 0.0
2015-Jan-07 04:32N 51°47' E 005°33'0 0.0
2015-Jan-07 03:32N 51°47' E 005°33'0 0.0
2015-Jan-07 02:29N 51°47' E 005°33'0 0.0
2015-Jan-07 01:32N 51°47' E 005°33'0 0.0
2015-Jan-07 00:20N 51°47' E 005°33'0 0.0
2015-Jan-06 23:32N 51°47' E 005°33'0 0.0
2015-Jan-06 22:32N 51°47' E 005°33'0 0.0
2015-Jan-06 21:32N 51°47' E 005°33'0 0.0
2015-Jan-06 20:32N 51°47' E 005°33'0 0.0
2015-Jan-06 19:26N 51°47' E 005°33'0 0.0
2015-Jan-06 18:32N 51°47' E 005°33'0 0.0
2015-Jan-06 17:32N 51°47' E 005°33'0 0.0
2015-Jan-06 16:32N 51°47' E 005°33'0 0.0
2015-Jan-06 15:32N 51°47' E 005°33'3 2.8
2015-Jan-06 14:33N 51°49' E 005°31'3 2.5
2015-Jan-06 13:32N 51°49' E 005°27'6 6.5
2015-Jan-06 12:34N 51°45' E 005°19'8 8.5
2015-Jan-06 11:34N 51°44' E 005°05'9 8.7
2015-Jan-06 10:34N 51°43' E 004°51'9 9.2
2015-Jan-06 09:33N 51°43' E 004°36'1110.9
2015-Jan-06 08:33N 51°45' E 004°19'8 8.2
2015-Jan-06 07:34N 51°49' E 004°08'0 0.0
2015-Jan-06 06:31N 51°49' E 004°08'0 0.0
2015-Jan-06 05:31N 51°49' E 004°08'0 0.0
2015-Jan-06 04:34N 51°49' E 004°08'0 0.0
2015-Jan-06 03:34N 51°49' E 004°08'0 0.0
2015-Jan-06 02:31N 51°49' E 004°08'0 0.0
2015-Jan-06 01:34N 51°49' E 004°08'0 0.0
2015-Jan-06 00:34N 51°49' E 004°08'0 0.0
2015-Jan-05 23:34N 51°49' E 004°08'0 0.0
2015-Jan-05 22:34N 51°49' E 004°08'0 0.0
2015-Jan-05 21:34N 51°49' E 004°08'0 0.0
2015-Jan-05 20:34N 51°49' E 004°08'0 0.0
2015-Jan-05 19:31N 51°49' E 004°08'0 0.0
2015-Jan-05 18:34N 51°49' E 004°08'0 0.0
2015-Jan-05 17:28N 51°49' E 004°08'0 0.0
2015-Jan-05 16:25N 51°49' E 004°08'0 0.0
2015-Jan-05 15:34N 51°49' E 004°08'0 0.0
2015-Jan-05 14:34N 51°49' E 004°08'0 0.0
2015-Jan-05 13:33N 51°49' E 004°08'0 0.0
2015-Jan-05 12:33N 51°49' E 004°08'0 0.0
2015-Jan-05 11:33N 51°49' E 004°08'0 0.0
2015-Jan-05 10:30N 51°49' E 004°08'0 0.0
2015-Jan-05 09:33N 51°49' E 004°08'0 0.0
2015-Jan-05 08:33N 51°49' E 004°08'0 0.0
2015-Jan-05 07:33N 51°49' E 004°08'0 0.0
2015-Jan-05 06:33N 51°49' E 004°08'0 0.0
2015-Jan-05 05:33N 51°49' E 004°08'0 0.0
2015-Jan-05 04:33N 51°49' E 004°08'0 0.0
2015-Jan-05 03:30N 51°49' E 004°08'0 0.0
2015-Jan-05 02:33N 51°49' E 004°08'0 0.0
2015-Jan-05 01:33N 51°49' E 004°08'0 0.0
2015-Jan-05 00:33N 51°49' E 004°08'0 0.0
2015-Jan-04 23:33N 51°49' E 004°08'0 0.0
2015-Jan-04 22:33N 51°49' E 004°08'0 0.0
2015-Jan-04 21:33N 51°49' E 004°08'0 0.0
2015-Jan-04 20:33N 51°49' E 004°08'0 0.0
2015-Jan-04 19:33N 51°49' E 004°08'0 0.0
2015-Jan-04 18:33N 51°49' E 004°08'0 0.0
2015-Jan-04 17:33N 51°49' E 004°08'0 0.0
2015-Jan-04 16:27N 51°49' E 004°08'0 0.0
2015-Jan-04 15:33N 51°49' E 004°08'0 0.0
2015-Jan-04 14:33N 51°49' E 004°08'0 0.0
2015-Jan-04 13:33N 51°49' E 004°08'0 0.0
2015-Jan-04 12:33N 51°49' E 004°08'0 0.0
2015-Jan-04 11:33N 51°49' E 004°08'0 0.0
2015-Jan-04 10:33N 51°49' E 004°08'0 0.0
2015-Jan-04 09:33N 51°49' E 004°08'0 0.0
2015-Jan-04 08:33N 51°49' E 004°08'0 0.0
2015-Jan-04 07:30N 51°49' E 004°08'0 0.0
2015-Jan-04 06:33N 51°49' E 004°08'0 0.0
2015-Jan-04 05:33N 51°49' E 004°08'0 0.0
2015-Jan-04 04:33N 51°49' E 004°08'0 0.0
2015-Jan-04 03:30N 51°49' E 004°08'0 0.0
2015-Jan-04 02:33N 51°49' E 004°08'0 0.0
2015-Jan-04 01:33N 51°49' E 004°08'0 0.0
2015-Jan-04 00:33N 51°49' E 004°08'0 0.0
2015-Jan-03 23:33N 51°49' E 004°08'0 0.0
2015-Jan-03 22:33N 51°49' E 004°08'0 0.0
2015-Jan-03 21:33N 51°49' E 004°08'0 0.0
2015-Jan-03 20:33N 51°49' E 004°08'0 0.0
2015-Jan-03 19:33N 51°49' E 004°08'0 0.0
2015-Jan-03 18:33N 51°49' E 004°08'0 0.0
2015-Jan-03 17:33N 51°49' E 004°08'0 0.0
2015-Jan-03 16:33N 51°49' E 004°08'0 0.0
2015-Jan-03 15:33N 51°49' E 004°08'0 0.0
2015-Jan-03 14:33N 51°49' E 004°08'0 0.0
2015-Jan-03 13:33N 51°49' E 004°08'0 0.0
2015-Jan-03 12:33N 51°49' E 004°08'0 0.0
2015-Jan-03 11:33N 51°49' E 004°08'0 0.0
2015-Jan-03 10:33N 51°49' E 004°08'0 0.0
2015-Jan-03 09:33N 51°49' E 004°08'0 0.0
2015-Jan-03 08:33N 51°49' E 004°08'0 0.0
2015-Jan-03 07:33N 51°49' E 004°08'0 0.0
2015-Jan-03 06:33N 51°49' E 004°08'0 0.0
2015-Jan-03 05:33N 51°49' E 004°08'0 0.0
2015-Jan-03 04:30N 51°49' E 004°08'0 0.0
2015-Jan-03 03:33N 51°49' E 004°08'0 0.0
2015-Jan-03 02:33N 51°49' E 004°08'0 0.0
2015-Jan-03 01:33N 51°49' E 004°08'0 0.0
2015-Jan-03 00:33N 51°49' E 004°08'0 0.0
2015-Jan-02 23:33N 51°49' E 004°08'0 0.0
2015-Jan-02 22:33N 51°49' E 004°08'0 0.0
2015-Jan-02 21:33N 51°49' E 004°08'0 0.0
2015-Jan-02 20:33N 51°49' E 004°08'0 0.0
2015-Jan-02 19:33N 51°49' E 004°08'0 0.0
2015-Jan-02 18:33N 51°49' E 004°08'0 0.0
2015-Jan-02 17:33N 51°49' E 004°08'0 0.0
2015-Jan-02 16:33N 51°49' E 004°08'0 0.0
2015-Jan-02 15:33N 51°49' E 004°08'0 0.0
2015-Jan-02 14:33N 51°49' E 004°08'0 0.0
2015-Jan-02 13:27N 51°49' E 004°08'0 0.0
2015-Jan-02 12:30N 51°49' E 004°08'0 0.0
2015-Jan-02 11:33N 51°49' E 004°08'0 0.0
2015-Jan-02 10:33N 51°49' E 004°08'0 0.0
2015-Jan-02 09:33N 51°49' E 004°08'0 0.0
2015-Jan-02 08:33N 51°49' E 004°08'0 0.0
2015-Jan-02 07:33N 51°49' E 004°08'0 0.0
2015-Jan-02 06:33N 51°49' E 004°08'0 0.0
2015-Jan-02 05:33N 51°49' E 004°08'0 0.0
2015-Jan-02 04:33N 51°49' E 004°08'0 0.0
2015-Jan-02 03:33N 51°49' E 004°08'0 0.0
2015-Jan-02 02:33N 51°49' E 004°08'0 0.0
2015-Jan-02 01:33N 51°49' E 004°08'0 0.0
2015-Jan-02 00:33N 51°49' E 004°08'0 0.0
2015-Jan-01 23:33N 51°49' E 004°08'0 0.0
2015-Jan-01 22:33N 51°49' E 004°08'0 0.0
2015-Jan-01 21:33N 51°49' E 004°08'0 0.0
2015-Jan-01 20:33N 51°49' E 004°08'0 0.0
2015-Jan-01 19:33N 51°49' E 004°08'0 0.0
2015-Jan-01 18:33N 51°49' E 004°08'0 0.0
2015-Jan-01 17:33N 51°49' E 004°08'0 0.0
2015-Jan-01 16:33N 51°49' E 004°08'0 0.0
2015-Jan-01 15:30N 51°49' E 004°08'0 0.0
2015-Jan-01 14:33N 51°49' E 004°08'0 0.0
2015-Jan-01 13:33N 51°49' E 004°08'0 0.0
2015-Jan-01 12:33N 51°49' E 004°08'0 0.0
2015-Jan-01 11:33N 51°49' E 004°08'0 0.0
2015-Jan-01 10:33N 51°49' E 004°08'0 0.0
2015-Jan-01 09:33N 51°49' E 004°08'0 0.0
2015-Jan-01 08:33N 51°49' E 004°08'0 0.0
2015-Jan-01 07:33N 51°49' E 004°08'0 0.0
2015-Jan-01 06:33N 51°49' E 004°08'0 0.0
2015-Jan-01 05:33N 51°49' E 004°08'0 0.0
2015-Jan-01 04:33N 51°49' E 004°08'0 0.0
2015-Jan-01 03:33N 51°49' E 004°08'0 0.0
2015-Jan-01 02:33N 51°49' E 004°08'0 0.0
2015-Jan-01 01:33N 51°49' E 004°08'0 0.0
2015-Jan-01 00:33N 51°49' E 004°08'0 0.0
2014-Dec-31 23:33N 51°49' E 004°08'0 0.0
2014-Dec-31 22:33N 51°49' E 004°08'0 0.0
2014-Dec-31 21:33N 51°49' E 004°08'0 0.0
2014-Dec-31 20:33N 51°49' E 004°08'0 0.0
2014-Dec-31 19:33N 51°49' E 004°08'0 0.0
2014-Dec-31 18:33N 51°49' E 004°08'0 0.0
2014-Dec-31 17:33N 51°49' E 004°08'0 0.0
2014-Dec-31 16:33N 51°49' E 004°08'0 0.0
2014-Dec-31 15:33N 51°49' E 004°08'0 0.0
2014-Dec-31 14:33N 51°49' E 004°08'0 0.0
2014-Dec-31 13:33N 51°49' E 004°08'0 0.0
2014-Dec-31 12:33N 51°49' E 004°08'0 0.0
2014-Dec-31 11:33N 51°49' E 004°08'0 0.0
2014-Dec-31 10:33N 51°49' E 004°08'0 0.0
2014-Dec-31 09:33N 51°49' E 004°08'0 0.0
2014-Dec-31 08:30N 51°49' E 004°08'0 0.0
2014-Dec-31 07:33N 51°49' E 004°08'0 0.0
2014-Dec-31 06:33N 51°49' E 004°08'0 0.0
2014-Dec-31 05:33N 51°49' E 004°08'0 0.0
2014-Dec-31 04:33N 51°49' E 004°08'0 0.0
2014-Dec-31 03:33N 51°49' E 004°08'0 0.0
2014-Dec-31 02:33N 51°49' E 004°08'0 0.0
2014-Dec-31 01:33N 51°49' E 004°08'0 0.0
2014-Dec-31 00:33N 51°49' E 004°08'0 0.0
2014-Dec-30 22:33N 51°49' E 004°08'0 0.0
2014-Dec-30 21:33N 51°49' E 004°08'0 0.0
2014-Dec-30 20:33N 51°49' E 004°08'0 0.0
2014-Dec-30 19:33N 51°49' E 004°08'0 0.0
2014-Dec-30 18:33N 51°49' E 004°08'0 0.0
2014-Dec-30 17:33N 51°49' E 004°08'0 0.0
2014-Dec-30 16:33N 51°49' E 004°08'0 0.0
2014-Dec-30 15:33N 51°49' E 004°08'0 0.0
2014-Dec-30 14:33N 51°49' E 004°08'0 0.0
2014-Dec-30 13:33N 51°49' E 004°08'0 0.0
2014-Dec-30 12:33N 51°49' E 004°08'0 0.0
2014-Dec-30 11:30N 51°49' E 004°08'0 0.0
2014-Dec-30 10:33N 51°49' E 004°08'0 0.0
2014-Dec-30 09:33N 51°49' E 004°08'0 0.0
2014-Dec-30 08:33N 51°49' E 004°08'0 0.0
2014-Dec-30 07:33N 51°49' E 004°08'0 0.0
2014-Dec-30 06:33N 51°49' E 004°08'0 0.0
2014-Dec-30 05:33N 51°49' E 004°08'0 0.0
2014-Dec-30 04:33N 51°49' E 004°08'0 0.0
2014-Dec-30 03:33N 51°49' E 004°08'0 0.0
2014-Dec-30 02:33N 51°49' E 004°08'0 0.0
2014-Dec-30 01:33N 51°49' E 004°08'0 0.0
2014-Dec-30 00:33N 51°49' E 004°08'0 0.0
2014-Dec-29 23:33N 51°49' E 004°08'0 0.0
2014-Dec-29 22:33N 51°49' E 004°08'0 0.0
2014-Dec-29 21:33N 51°49' E 004°08'0 0.0
2014-Dec-29 20:33N 51°49' E 004°08'0 0.0
2014-Dec-29 19:24N 51°49' E 004°08'0 0.0
2014-Dec-29 18:33N 51°49' E 004°08'0 0.0
2014-Dec-29 17:33N 51°49' E 004°08'0 0.0
2014-Dec-29 16:30N 51°49' E 004°08'0 0.0
2014-Dec-29 15:30N 51°49' E 004°08'0 0.0
2014-Dec-29 14:33N 51°49' E 004°08'0 0.0
2014-Dec-29 13:33N 51°49' E 004°08'0 0.0
2014-Dec-29 12:33N 51°49' E 004°08'0 0.0
2014-Dec-29 11:33N 51°49' E 004°08'0 0.0
2014-Dec-29 10:32N 51°49' E 004°08'0 0.0
2014-Dec-29 09:33N 51°49' E 004°08'0 0.0
2014-Dec-29 08:33N 51°49' E 004°08'0 0.0
2014-Dec-29 07:33N 51°49' E 004°08'0 0.0
2014-Dec-29 06:33N 51°49' E 004°08'0 0.0
2014-Dec-29 05:33N 51°49' E 004°08'0 0.0
2014-Dec-29 04:33N 51°49' E 004°08'0 0.0
2014-Dec-29 03:33N 51°49' E 004°08'0 0.0
2014-Dec-29 02:32N 51°49' E 004°08'0 0.0
2014-Dec-29 01:33N 51°49' E 004°08'0 0.0
2014-Dec-29 00:33N 51°49' E 004°08'0 0.0
2014-Dec-28 23:33N 51°49' E 004°08'0 0.0
2014-Dec-28 22:33N 51°49' E 004°08'0 0.0
2014-Dec-28 21:33N 51°49' E 004°08'0 0.0
2014-Dec-28 20:30N 51°49' E 004°08'0 0.0
2014-Dec-28 19:33N 51°49' E 004°08'0 0.0
2014-Dec-28 18:33N 51°49' E 004°08'0 0.0
2014-Dec-28 17:33N 51°49' E 004°08'0 0.0
2014-Dec-28 16:33N 51°49' E 004°08'0 0.0
2014-Dec-28 15:33N 51°49' E 004°08'0 0.0
2014-Dec-28 14:33N 51°49' E 004°08'0 0.0
2014-Dec-28 13:33N 51°49' E 004°08'0 0.0
2014-Dec-28 12:33N 51°49' E 004°08'0 0.0
2014-Dec-28 11:33N 51°49' E 004°08'0 0.0
2014-Dec-28 10:33N 51°49' E 004°08'0 0.0
2014-Dec-28 09:33N 51°49' E 004°08'0 0.0
2014-Dec-28 08:33N 51°49' E 004°08'0 0.0
2014-Dec-28 07:33N 51°49' E 004°08'  

Dump ship's entire track history